createdAt,value
2023-04-30T00:00:10.463Z,9.73
2023-04-30T00:02:38.180Z,9.39
2023-04-30T00:05:06.233Z,9.30
2023-04-30T00:07:33.872Z,9.49
2023-04-30T00:10:01.301Z,9.50
2023-04-30T00:12:30.137Z,9.57
2023-04-30T00:14:57.544Z,9.42
2023-04-30T00:17:25.120Z,9.15
2023-04-30T00:19:52.942Z,9.02
2023-04-30T00:22:20.639Z,9.18
2023-04-30T00:24:48.160Z,9.10
2023-04-30T00:27:15.618Z,8.97
2023-04-30T00:29:44.394Z,9.34
2023-04-30T00:32:11.890Z,9.49
2023-04-30T00:34:39.387Z,9.40
2023-04-30T00:37:06.820Z,9.22
2023-04-30T00:39:34.223Z,9.43
2023-04-30T00:42:02.447Z,9.15
2023-04-30T00:44:29.907Z,9.53
2023-04-30T00:46:58.640Z,9.50
2023-04-30T00:49:26.510Z,9.91
2023-04-30T00:51:55.164Z,10.04
2023-04-30T00:54:22.984Z,9.49
2023-04-30T00:56:50.455Z,8.93
2023-04-30T00:59:18.424Z,9.06
2023-04-30T01:01:46.092Z,8.97
2023-04-30T01:04:15.076Z,8.83
2023-04-30T01:06:43.233Z,8.59
2023-04-30T01:09:11.101Z,8.49
2023-04-30T01:11:49.986Z,8.37
2023-04-30T01:14:25.873Z,8.41
2023-04-30T01:17:01.033Z,8.65
2023-04-30T01:19:39.075Z,8.64
2023-04-30T01:22:10.350Z,8.40
2023-04-30T01:25:00.752Z,8.46
2023-04-30T01:27:41.375Z,8.71
2023-04-30T01:30:11.392Z,8.46
2023-04-30T01:32:38.869Z,8.81
2023-04-30T01:35:06.840Z,8.96
2023-04-30T01:37:45.836Z,8.81
2023-04-30T01:40:25.243Z,8.80
2023-04-30T01:43:02.148Z,8.61
2023-04-30T01:45:51.280Z,8.92
2023-04-30T01:48:28.237Z,9.78
2023-04-30T01:51:02.844Z,10.27
2023-04-30T01:53:34.626Z,9.98
2023-04-30T01:56:07.048Z,9.50
2023-04-30T01:58:38.599Z,9.42
2023-04-30T02:01:07.377Z,9.94
2023-04-30T02:03:34.833Z,9.17
2023-04-30T02:06:02.293Z,9.16
2023-04-30T02:08:29.762Z,8.77
2023-04-30T02:10:57.183Z,9.17
2023-04-30T02:13:24.685Z,9.71
2023-04-30T02:15:52.106Z,9.84
2023-04-30T02:18:20.953Z,9.73
2023-04-30T02:20:48.431Z,9.43
2023-04-30T02:23:16.793Z,9.49
2023-04-30T02:25:44.726Z,9.83
2023-04-30T02:28:12.096Z,9.84
2023-04-30T02:30:39.845Z,9.69
2023-04-30T02:33:07.318Z,9.83
2023-04-30T02:35:36.092Z,9.79
2023-04-30T02:38:03.499Z,9.02
2023-04-30T02:40:30.853Z,9.03
2023-04-30T02:42:58.953Z,9.23
2023-04-30T02:45:26.348Z,9.41
2023-04-30T02:47:53.851Z,9.54
2023-04-30T02:50:21.254Z,9.23
2023-04-30T02:52:49.995Z,9.17
2023-04-30T02:55:17.639Z,8.92
2023-04-30T02:57:45.058Z,8.73
2023-04-30T03:00:13.942Z,8.60
2023-04-30T03:02:41.678Z,9.02
2023-04-30T03:05:09.516Z,8.43
2023-04-30T03:07:36.921Z,7.91
2023-04-30T03:10:06.858Z,8.64
2023-04-30T03:12:34.288Z,8.42
2023-04-30T03:15:01.720Z,8.07
2023-04-30T03:17:29.153Z,8.48
2023-04-30T03:19:56.931Z,8.54
2023-04-30T03:22:26.654Z,8.40
2023-04-30T03:24:54.157Z,8.68
2023-04-30T03:27:22.910Z,8.58
2023-04-30T03:29:50.326Z,8.35
2023-04-30T03:32:17.758Z,8.90
2023-04-30T03:34:45.151Z,8.60
2023-04-30T03:37:12.574Z,8.36
2023-04-30T03:39:40.073Z,8.27
2023-04-30T03:42:07.525Z,7.91
2023-04-30T03:44:36.266Z,8.48
2023-04-30T03:47:03.659Z,8.48
2023-04-30T03:49:31.169Z,8.09
2023-04-30T03:51:58.689Z,8.32
2023-04-30T03:54:26.083Z,7.98
2023-04-30T03:56:53.546Z,8.00
2023-04-30T03:59:21.146Z,7.89
2023-04-30T04:01:50.032Z,7.98
2023-04-30T04:04:17.528Z,7.79
2023-04-30T04:06:45.027Z,7.89
2023-04-30T04:09:12.509Z,9.00
2023-04-30T04:11:39.939Z,8.15
2023-04-30T04:14:07.343Z,8.46
2023-04-30T04:16:34.939Z,8.29
2023-04-30T04:19:04.494Z,8.50
2023-04-30T04:21:31.890Z,8.38
2023-04-30T04:23:59.306Z,8.17
2023-04-30T04:26:28.788Z,8.42
2023-04-30T04:28:56.223Z,8.92
2023-04-30T04:31:23.628Z,8.69
2023-04-30T04:33:58.097Z,8.67
2023-04-30T04:36:27.623Z,8.14
2023-04-30T04:38:55.112Z,8.34
2023-04-30T04:41:23.314Z,8.28
2023-04-30T04:43:51.826Z,8.97
2023-04-30T04:46:19.258Z,8.37
2023-04-30T04:48:46.665Z,8.61
2023-04-30T04:51:14.062Z,8.03
2023-04-30T04:53:42.781Z,8.08
2023-04-30T04:56:10.207Z,8.61
2023-04-30T04:58:37.788Z,8.52
2023-04-30T05:01:05.998Z,8.46
2023-04-30T05:03:34.267Z,7.78
2023-04-30T05:06:01.738Z,8.70
2023-04-30T05:08:29.214Z,8.48
2023-04-30T05:10:57.969Z,8.22
2023-04-30T05:13:25.461Z,9.19
2023-04-30T05:15:54.615Z,8.72
2023-04-30T05:18:22.088Z,8.55
2023-04-30T05:20:49.612Z,8.87
2023-04-30T05:23:17.094Z,8.45
2023-04-30T05:25:44.502Z,8.73
2023-04-30T05:28:13.372Z,9.02
2023-04-30T05:30:40.870Z,9.06
2023-04-30T05:33:08.320Z,9.69
2023-04-30T05:35:36.224Z,9.34
2023-04-30T05:38:03.908Z,14.24
2023-04-30T05:40:31.314Z,14.74
2023-04-30T05:42:58.843Z,13.86
2023-04-30T05:45:27.758Z,10.44
2023-04-30T05:47:55.209Z,11.65
2023-04-30T05:50:22.819Z,10.96
2023-04-30T05:52:50.371Z,10.89
2023-04-30T05:55:17.808Z,11.47
2023-04-30T05:57:45.201Z,10.40
2023-04-30T06:00:13.862Z,10.45
2023-04-30T06:02:42.682Z,10.16
2023-04-30T06:05:10.597Z,10.84
2023-04-30T06:07:38.069Z,10.01
2023-04-30T06:10:06.624Z,10.20
2023-04-30T06:12:34.121Z,10.33
2023-04-30T06:15:01.733Z,9.64
2023-04-30T06:17:29.178Z,9.66
2023-04-30T06:20:00.696Z,10.47
2023-04-30T06:22:28.095Z,12.80
2023-04-30T06:24:57.704Z,13.53
2023-04-30T06:27:27.902Z,11.94
2023-04-30T06:29:55.629Z,11.86
2023-04-30T06:32:23.330Z,10.80
2023-04-30T06:34:51.050Z,9.80
2023-04-30T06:37:20.139Z,9.20
2023-04-30T06:39:47.546Z,10.17
2023-04-30T06:42:14.992Z,9.78
2023-04-30T06:44:42.405Z,10.04
2023-04-30T06:47:09.834Z,9.95
2023-04-30T06:49:37.226Z,9.41
2023-04-30T06:52:05.315Z,9.61
2023-04-30T06:54:34.047Z,9.99
2023-04-30T06:57:01.857Z,9.17
2023-04-30T06:59:29.478Z,9.75
2023-04-30T07:01:57.291Z,10.37
2023-04-30T07:04:26.173Z,10.15
2023-04-30T07:06:53.588Z,10.41
2023-04-30T07:09:20.999Z,10.09
2023-04-30T07:11:50.158Z,10.19
2023-04-30T07:14:17.588Z,10.16
2023-04-30T07:16:45.998Z,10.10
2023-04-30T07:19:13.579Z,9.86
2023-04-30T07:21:41.150Z,9.98
2023-04-30T07:24:08.743Z,9.93
2023-04-30T07:26:36.423Z,9.93
2023-04-30T07:29:05.416Z,9.52
2023-04-30T07:31:33.427Z,9.34
2023-04-30T07:34:00.895Z,9.60
2023-04-30T07:36:28.357Z,9.93
2023-04-30T07:38:55.763Z,11.19
2023-04-30T07:41:25.619Z,10.94
2023-04-30T07:43:53.355Z,10.71
2023-04-30T07:46:22.102Z,11.25
2023-04-30T07:48:49.513Z,10.13
2023-04-30T07:51:16.918Z,10.07
2023-04-30T07:53:44.326Z,10.60
2023-04-30T07:56:11.718Z,9.98
2023-04-30T07:58:39.149Z,11.17
2023-04-30T08:01:06.746Z,9.80
2023-04-30T08:03:36.594Z,9.63
2023-04-30T08:06:06.559Z,9.47
2023-04-30T08:08:34.052Z,10.34
2023-04-30T08:11:01.467Z,10.59
2023-04-30T08:13:28.858Z,9.86
2023-04-30T08:15:56.367Z,10.40
2023-04-30T08:18:23.784Z,9.91
2023-04-30T08:20:52.711Z,9.64
2023-04-30T08:23:20.361Z,9.89
2023-04-30T08:25:47.738Z,10.05
2023-04-30T08:28:15.147Z,10.27
2023-04-30T08:30:42.612Z,10.20
2023-04-30T08:33:10.183Z,10.46
2023-04-30T08:35:37.666Z,10.89
2023-04-30T08:38:06.452Z,11.40
2023-04-30T08:40:50.108Z,10.25
2023-04-30T08:43:19.434Z,11.82
2023-04-30T08:45:47.343Z,10.53
2023-04-30T08:48:16.762Z,10.55
2023-04-30T08:50:44.242Z,10.71
2023-04-30T08:53:15.768Z,10.97
2023-04-30T08:55:43.210Z,10.50
2023-04-30T08:58:11.240Z,10.60
2023-04-30T09:00:40.037Z,11.03
2023-04-30T09:03:08.663Z,11.07
2023-04-30T09:05:37.597Z,10.47
2023-04-30T09:08:05.722Z,10.40
2023-04-30T09:10:35.319Z,10.91
2023-04-30T09:13:04.418Z,10.72
2023-04-30T09:15:33.606Z,10.60
2023-04-30T09:18:12.174Z,10.31
2023-04-30T09:20:39.864Z,11.31
2023-04-30T09:23:08.825Z,10.75
2023-04-30T09:25:42.510Z,10.50
2023-04-30T09:28:11.675Z,11.10
2023-04-30T09:30:39.480Z,11.16
2023-04-30T09:33:09.892Z,12.07
2023-04-30T09:35:41.561Z,10.78
2023-04-30T09:38:09.143Z,10.73
2023-04-30T09:40:38.100Z,11.13
2023-04-30T09:43:07.343Z,10.93
2023-04-30T09:45:42.288Z,10.71
2023-04-30T09:48:17.314Z,11.10
2023-04-30T09:50:47.211Z,11.86
2023-04-30T09:53:17.877Z,10.72
2023-04-30T09:55:46.873Z,11.19
2023-04-30T09:58:17.110Z,11.18
2023-04-30T10:00:46.844Z,11.83
2023-04-30T10:03:15.941Z,12.43
2023-04-30T10:05:47.103Z,11.78
2023-04-30T10:08:19.006Z,12.23
2023-04-30T10:10:48.355Z,12.23
2023-04-30T10:13:20.731Z,10.81
2023-04-30T10:15:52.798Z,11.01
2023-04-30T10:18:22.650Z,10.79
2023-04-30T10:20:54.439Z,11.39
2023-04-30T10:23:22.933Z,11.77
2023-04-30T10:25:52.903Z,11.70
2023-04-30T10:28:22.049Z,11.13
2023-04-30T10:30:52.106Z,11.63
2023-04-30T10:33:24.156Z,11.12
2023-04-30T10:35:57.891Z,11.19
2023-04-30T10:38:29.656Z,11.38
2023-04-30T10:40:58.263Z,11.32
2023-04-30T10:43:27.702Z,11.97
2023-04-30T10:45:55.219Z,12.09
2023-04-30T10:48:25.854Z,12.42
2023-04-30T10:50:54.474Z,11.77
2023-04-30T10:53:23.029Z,11.60
2023-04-30T10:55:55.747Z,11.38
2023-04-30T10:58:30.450Z,11.77
2023-04-30T11:01:02.962Z,11.91
2023-04-30T11:03:31.384Z,11.84
2023-04-30T11:06:00.040Z,12.18
2023-04-30T11:08:35.214Z,11.83
2023-04-30T11:11:03.744Z,12.71
2023-04-30T11:13:40.236Z,12.07
2023-04-30T11:16:08.010Z,11.68
2023-04-30T11:18:35.628Z,12.03
2023-04-30T11:21:03.701Z,12.28
2023-04-30T11:23:41.548Z,12.42
2023-04-30T11:26:10.282Z,12.63
2023-04-30T11:28:39.402Z,12.72
2023-04-30T11:31:07.083Z,12.20
2023-04-30T11:33:35.766Z,11.91
2023-04-30T11:36:03.416Z,12.23
2023-04-30T11:38:34.890Z,12.45
2023-04-30T11:41:03.131Z,12.48
2023-04-30T11:43:33.168Z,12.94
2023-04-30T11:46:05.053Z,12.79
2023-04-30T11:48:33.603Z,11.93
2023-04-30T11:51:03.668Z,12.17
2023-04-30T11:53:31.092Z,12.71
2023-04-30T11:55:58.470Z,12.58
2023-04-30T11:58:26.307Z,12.25
2023-04-30T12:00:53.744Z,12.73
2023-04-30T12:03:22.616Z,12.95
2023-04-30T12:05:50.046Z,12.44
2023-04-30T12:08:20.366Z,12.97
2023-04-30T12:10:47.751Z,14.07
2023-04-30T12:13:16.627Z,13.46
2023-04-30T12:15:44.257Z,13.23
2023-04-30T12:18:15.271Z,13.16
2023-04-30T12:20:44.458Z,13.65
2023-04-30T12:23:12.086Z,12.70
2023-04-30T12:25:43.892Z,12.90
2023-04-30T12:28:12.054Z,12.79
2023-04-30T12:30:39.479Z,12.92
2023-04-30T12:33:07.093Z,13.49
2023-04-30T12:35:35.030Z,14.22
2023-04-30T12:38:06.579Z,13.95
2023-04-30T12:40:34.668Z,13.40
2023-04-30T12:43:02.951Z,13.71
2023-04-30T12:45:47.555Z,13.73
2023-04-30T12:48:16.449Z,13.78
2023-04-30T12:50:44.076Z,14.16
2023-04-30T12:53:12.920Z,13.45
2023-04-30T12:55:40.547Z,14.28
2023-04-30T12:58:10.014Z,14.09
2023-04-30T13:00:49.642Z,13.90
2023-04-30T13:03:18.960Z,14.24
2023-04-30T13:05:51.824Z,13.14
2023-04-30T13:08:21.560Z,13.62
2023-04-30T13:10:49.619Z,13.80
2023-04-30T13:13:18.574Z,13.94
2023-04-30T13:15:46.000Z,14.03
2023-04-30T13:18:15.820Z,14.27
2023-04-30T13:20:43.929Z,14.56
2023-04-30T13:23:12.143Z,14.47
2023-04-30T13:25:41.784Z,15.51
2023-04-30T13:28:09.295Z,14.27
2023-04-30T13:30:36.834Z,14.88
2023-04-30T13:33:04.762Z,13.89
2023-04-30T13:35:32.215Z,14.45
2023-04-30T13:38:00.579Z,14.51
2023-04-30T13:40:28.477Z,14.16
2023-04-30T13:42:57.244Z,14.37
2023-04-30T13:45:24.643Z,15.08
2023-04-30T13:47:52.120Z,14.86
2023-04-30T13:50:19.558Z,15.77
2023-04-30T13:52:47.002Z,16.12
2023-04-30T13:55:14.697Z,16.22
2023-04-30T13:57:42.224Z,15.31
2023-04-30T14:00:12.596Z,14.96
2023-04-30T14:02:40.170Z,14.24
2023-04-30T14:05:08.212Z,14.83
2023-04-30T14:07:37.258Z,16.05
2023-04-30T14:10:05.163Z,16.31
2023-04-30T14:12:32.561Z,14.56
2023-04-30T14:15:00.130Z,15.05
2023-04-30T14:17:29.600Z,14.97
2023-04-30T14:19:57.389Z,14.44
2023-04-30T14:22:25.128Z,14.31
2023-04-30T14:24:53.520Z,14.99
2023-04-30T14:27:21.215Z,14.66
2023-04-30T14:29:48.663Z,14.74
2023-04-30T14:32:16.205Z,14.58
2023-04-30T14:34:44.955Z,14.92
2023-04-30T14:37:12.381Z,14.50
2023-04-30T14:39:39.798Z,15.17
2023-04-30T14:42:07.217Z,14.08
2023-04-30T14:44:34.607Z,16.07
2023-04-30T14:47:02.280Z,16.23
2023-04-30T14:49:29.658Z,16.11
2023-04-30T14:51:58.364Z,16.24
2023-04-30T14:54:25.928Z,15.75
2023-04-30T14:56:53.523Z,15.71
2023-04-30T14:59:21.468Z,15.17
2023-04-30T15:01:49.009Z,14.89
2023-04-30T15:04:16.555Z,14.39
2023-04-30T15:06:44.086Z,14.74
2023-04-30T15:09:13.784Z,16.02
2023-04-30T15:11:41.185Z,16.28
2023-04-30T15:14:08.607Z,14.95
2023-04-30T15:16:36.559Z,15.50
2023-04-30T15:19:04.365Z,14.91
2023-04-30T15:21:31.768Z,15.25
2023-04-30T15:23:59.152Z,16.03
2023-04-30T15:26:29.343Z,14.99
2023-04-30T15:28:57.209Z,14.92
2023-04-30T15:31:25.035Z,15.80
2023-04-30T15:33:52.504Z,15.06
2023-04-30T15:36:22.282Z,15.48
2023-04-30T15:38:49.946Z,16.16
2023-04-30T15:41:17.333Z,16.25
2023-04-30T15:43:46.207Z,16.35
2023-04-30T15:46:14.062Z,16.60
2023-04-30T15:48:41.455Z,15.18
2023-04-30T15:51:08.882Z,15.97
2023-04-30T15:53:36.421Z,16.52
2023-04-30T15:56:04.874Z,16.41
2023-04-30T15:58:32.319Z,16.36
2023-04-30T16:01:01.922Z,16.20
2023-04-30T16:03:29.501Z,16.40
2023-04-30T16:05:57.246Z,16.06
2023-04-30T16:08:24.772Z,16.31
2023-04-30T16:10:52.215Z,16.18
2023-04-30T16:13:19.698Z,15.97
2023-04-30T16:15:47.509Z,16.16
2023-04-30T16:18:16.839Z,15.99
2023-04-30T16:20:48.534Z,16.44
2023-04-30T16:23:16.242Z,16.56
2023-04-30T16:25:43.650Z,15.80
2023-04-30T16:28:11.156Z,16.29
2023-04-30T16:30:38.654Z,16.32
2023-04-30T16:33:06.953Z,16.79
2023-04-30T16:35:35.789Z,16.56
2023-04-30T16:38:03.830Z,16.84
2023-04-30T16:40:32.141Z,16.13
2023-04-30T16:43:00.566Z,15.60
2023-04-30T16:45:28.897Z,16.03
2023-04-30T16:47:56.464Z,16.61
2023-04-30T16:50:26.678Z,16.79
2023-04-30T16:52:55.432Z,16.69
2023-04-30T16:55:22.976Z,16.64
2023-04-30T16:57:50.701Z,16.41
2023-04-30T17:00:18.722Z,16.20
2023-04-30T17:02:48.644Z,16.02
2023-04-30T17:05:16.612Z,14.99
2023-04-30T17:07:44.549Z,15.77
2023-04-30T17:10:14.760Z,16.10
2023-04-30T17:12:42.508Z,15.17
2023-04-30T17:15:10.625Z,15.41
2023-04-30T17:17:38.102Z,15.39
2023-04-30T17:20:06.652Z,15.43
2023-04-30T17:22:34.129Z,16.34
2023-04-30T17:25:02.123Z,15.95
2023-04-30T17:27:31.059Z,16.31
2023-04-30T17:29:58.593Z,16.34
2023-04-30T17:32:26.944Z,15.78
2023-04-30T17:34:54.422Z,15.19
2023-04-30T17:37:21.827Z,15.37
2023-04-30T17:39:49.214Z,15.75
2023-04-30T17:42:17.836Z,15.74
2023-04-30T17:44:46.551Z,14.72
2023-04-30T17:47:16.182Z,15.30
2023-04-30T17:49:43.838Z,15.02
2023-04-30T17:52:11.607Z,15.05
2023-04-30T17:54:39.038Z,15.26
2023-04-30T17:57:06.552Z,15.52
2023-04-30T17:59:34.768Z,15.10
2023-04-30T18:02:05.597Z,14.58
2023-04-30T18:04:33.153Z,14.59
2023-04-30T18:07:00.576Z,15.18
2023-04-30T18:09:28.060Z,15.25
2023-04-30T18:11:56.132Z,14.59
2023-04-30T18:14:24.485Z,14.92
2023-04-30T18:16:52.135Z,14.28
2023-04-30T18:19:20.995Z,14.59
2023-04-30T18:21:48.438Z,14.40
2023-04-30T18:24:15.838Z,14.55
2023-04-30T18:26:43.280Z,14.30
2023-04-30T18:29:10.682Z,14.85
2023-04-30T18:31:38.228Z,15.20
2023-04-30T18:34:05.685Z,14.51
2023-04-30T18:36:35.899Z,14.48
2023-04-30T18:39:03.665Z,15.10
2023-04-30T18:41:31.229Z,15.49
2023-04-30T18:43:58.701Z,14.94
2023-04-30T18:46:26.291Z,15.45
2023-04-30T18:48:53.793Z,15.58
2023-04-30T18:51:21.256Z,15.28
2023-04-30T18:53:50.674Z,15.75
2023-04-30T18:56:18.068Z,15.14
2023-04-30T18:58:46.776Z,15.78
2023-04-30T19:01:14.259Z,15.14
2023-04-30T19:03:42.034Z,15.21
2023-04-30T19:06:09.715Z,15.29
2023-04-30T19:08:37.240Z,15.22
2023-04-30T19:11:06.194Z,15.17
2023-04-30T19:13:33.734Z,15.48
2023-04-30T19:16:02.940Z,15.24
2023-04-30T19:18:30.368Z,15.49
2023-04-30T19:20:59.938Z,15.28
2023-04-30T19:23:30.166Z,14.94
2023-04-30T19:25:57.933Z,15.14
2023-04-30T19:28:26.878Z,15.34
2023-04-30T19:30:55.557Z,15.02
2023-04-30T19:33:23.712Z,14.77
2023-04-30T19:35:53.300Z,14.63
2023-04-30T19:38:21.010Z,14.85
2023-04-30T19:40:49.468Z,14.66
2023-04-30T19:43:17.119Z,15.14
2023-04-30T19:45:48.095Z,14.99
2023-04-30T19:48:15.653Z,15.00
2023-04-30T19:50:44.841Z,14.80
2023-04-30T19:53:12.740Z,14.69
2023-04-30T19:55:40.257Z,14.49
2023-04-30T19:58:07.772Z,14.98
2023-04-30T20:00:37.501Z,14.39
2023-04-30T20:03:06.704Z,14.15
2023-04-30T20:05:36.107Z,14.72
2023-04-30T20:08:04.407Z,14.30
2023-04-30T20:10:31.900Z,13.25
2023-04-30T20:12:59.281Z,14.33
2023-04-30T20:15:27.236Z,13.88
2023-04-30T20:17:54.828Z,13.75
2023-04-30T20:20:24.662Z,14.16
2023-04-30T20:22:53.732Z,13.96
2023-04-30T20:25:22.424Z,13.89
2023-04-30T20:27:49.932Z,13.67
2023-04-30T20:30:17.398Z,14.09
2023-04-30T20:32:45.067Z,14.45
2023-04-30T20:35:12.737Z,14.60
2023-04-30T20:37:41.532Z,14.54
2023-04-30T20:40:10.295Z,14.39
2023-04-30T20:42:38.708Z,14.20
2023-04-30T20:45:06.917Z,13.95
2023-04-30T20:47:34.405Z,14.34
2023-04-30T20:50:01.840Z,14.14
2023-04-30T20:52:29.432Z,14.17
2023-04-30T20:54:59.340Z,13.86
2023-04-30T20:57:27.158Z,14.36
2023-04-30T20:59:54.952Z,15.07
2023-04-30T21:02:22.575Z,14.83
2023-04-30T21:04:50.124Z,14.93
2023-04-30T21:07:17.600Z,14.75
2023-04-30T21:09:45.038Z,15.10
2023-04-30T21:12:13.837Z,15.16
2023-04-30T21:14:41.522Z,14.88
2023-04-30T21:17:09.310Z,14.85
2023-04-30T21:19:36.819Z,15.56
2023-04-30T21:22:04.411Z,14.57
2023-04-30T21:24:32.029Z,14.52
2023-04-30T21:27:00.034Z,14.81
2023-04-30T21:29:28.839Z,14.81
2023-04-30T21:31:56.642Z,15.51
2023-04-30T21:34:24.659Z,14.66
2023-04-30T21:36:52.122Z,14.66
2023-04-30T21:39:19.556Z,15.03
2023-04-30T21:41:47.101Z,14.27
2023-04-30T21:44:14.577Z,14.38
2023-04-30T21:46:43.396Z,14.11
2023-04-30T21:49:11.775Z,13.49
2023-04-30T21:51:39.307Z,13.44
2023-04-30T21:54:06.991Z,13.21
2023-04-30T21:56:34.459Z,13.51
2023-04-30T21:59:02.016Z,13.62
2023-04-30T22:01:30.189Z,13.81
2023-04-30T22:03:59.724Z,13.80
2023-04-30T22:06:28.388Z,13.29
2023-04-30T22:08:56.545Z,13.36
2023-04-30T22:11:25.175Z,13.49
2023-04-30T22:13:52.616Z,13.58
2023-04-30T22:16:20.032Z,13.27
2023-04-30T22:18:47.616Z,13.14
2023-04-30T22:21:16.426Z,13.46
2023-04-30T22:23:43.867Z,13.55
2023-04-30T22:26:11.412Z,13.34
2023-04-30T22:28:38.926Z,13.56
2023-04-30T22:31:06.497Z,13.39
2023-04-30T22:33:37.742Z,13.39
2023-04-30T22:36:06.479Z,13.54
2023-04-30T22:38:35.351Z,13.38
2023-04-30T22:41:03.861Z,13.14
2023-04-30T22:43:31.588Z,13.35
2023-04-30T22:46:00.151Z,13.24
2023-04-30T22:48:28.303Z,12.84
2023-04-30T22:50:56.396Z,12.90
2023-04-30T22:53:24.189Z,13.22
2023-04-30T22:55:54.846Z,12.83
2023-04-30T22:58:22.360Z,13.17
2023-04-30T23:00:49.855Z,13.42
2023-04-30T23:03:17.526Z,13.37
2023-04-30T23:05:45.261Z,13.14
2023-04-30T23:08:12.773Z,13.11
2023-04-30T23:10:40.205Z,12.90
2023-04-30T23:13:08.923Z,13.07
2023-04-30T23:15:36.425Z,13.12
2023-04-30T23:18:05.238Z,12.95
2023-04-30T23:20:32.788Z,13.00
2023-04-30T23:23:00.379Z,12.93
2023-04-30T23:25:28.003Z,13.02
2023-04-30T23:27:55.479Z,13.00
2023-04-30T23:30:24.202Z,12.97
2023-04-30T23:32:51.617Z,12.87
2023-04-30T23:35:19.281Z,12.57
2023-04-30T23:37:46.701Z,12.00
2023-04-30T23:40:15.123Z,11.64
2023-04-30T23:42:42.553Z,11.54
2023-04-30T23:45:10.871Z,11.52
2023-04-30T23:47:39.643Z,11.65
2023-04-30T23:50:08.352Z,10.90
2023-04-30T23:52:36.764Z,10.85
2023-04-30T23:55:04.428Z,10.59
2023-04-30T23:57:31.875Z,11.24
2023-04-30T23:59:59.725Z,11.27
